METAR K3S8 200055Z AUTO VRB04KT 10SM 15/10 A3001


AIRPORT ID: 3S8

DATE(M/D/Y): 9/20/2017 0:55 Z 17:55 L


WIND DIRECT: 170

WIND SPEED: 4 KT

WIND CONDITIONS:

VISIBILTY: 10 SM 9999 M

TEMPERATURE: 59 F 15 C

DEW POINT: 50 F 10 C

ALTIMETER: A3001 Q1016

DENSITY ALT: 1300 FT

HUMID: 72%

LCL: 1,000-3,000 FT


RADIO CHECK: 0

ADVISORIES: 0

GREETINGS: 0

CONVERSATIONS: 4